sensor_id;sensor_type;location;lat;lon;timestamp;temperature;humidity
27619;DHT22;15039;50.830;4.730;2022-07-04T00:00:09;15.80;99.90
27619;DHT22;15039;50.830;4.730;2022-07-04T00:02:36;15.80;99.90
27619;DHT22;15039;50.830;4.730;2022-07-04T00:05:03;15.70;99.90
27619;DHT22;15039;50.830;4.730;2022-07-04T00:07:29;15.70;99.90
27619;DHT22;15039;50.830;4.730;2022-07-04T00:09:54;15.70;99.90
27619;DHT22;15039;50.830;4.730;2022-07-04T00:12:20;15.60;99.90
27619;DHT22;15039;50.830;4.730;2022-07-04T00:14:46;15.50;99.90
27619;DHT22;15039;50.830;4.730;2022-07-04T00:17:11;15.60;99.90
27619;DHT22;15039;50.830;4.730;2022-07-04T00:19:37;15.50;99.90
27619;DHT22;15039;50.830;4.730;2022-07-04T00:22:03;15.50;99.90
27619;DHT22;15039;50.830;4.730;2022-07-04T00:24:29;15.50;99.90
27619;DHT22;15039;50.830;4.730;2022-07-04T00:26:54;15.40;99.90
27619;DHT22;15039;50.830;4.730;2022-07-04T00:29:20;15.40;99.90
27619;DHT22;15039;50.830;4.730;2022-07-04T00:31:46;15.40;99.90
27619;DHT22;15039;50.830;4.730;2022-07-04T00:34:12;15.40;99.90
27619;DHT22;15039;50.830;4.730;2022-07-04T00:36:37;15.30;99.90
27619;DHT22;15039;50.830;4.730;2022-07-04T00:39:03;15.40;99.90
27619;DHT22;15039;50.830;4.730;2022-07-04T00:41:29;15.30;99.90
27619;DHT22;15039;50.830;4.730;2022-07-04T00:44:04;15.20;99.90
27619;DHT22;15039;50.830;4.730;2022-07-04T00:46:30;15.20;99.90
27619;DHT22;15039;50.830;4.730;2022-07-04T00:48:56;15.20;99.90
27619;DHT22;15039;50.830;4.730;2022-07-04T00:51:23;15.30;99.90
27619;DHT22;15039;50.830;4.730;2022-07-04T00:53:50;15.20;99.90
27619;DHT22;15039;50.830;4.730;2022-07-04T00:56:16;15.20;99.90
27619;DHT22;15039;50.830;4.730;2022-07-04T00:58:41;15.10;99.90
27619;DHT22;15039;50.830;4.730;2022-07-04T01:01:07;15.10;99.90
27619;DHT22;15039;50.830;4.730;2022-07-04T01:03:33;15.10;99.90
27619;DHT22;15039;50.830;4.730;2022-07-04T01:06:00;15.00;99.90
27619;DHT22;15039;50.830;4.730;2022-07-04T01:08:26;14.90;99.90
27619;DHT22;15039;50.830;4.730;2022-07-04T01:10:51;14.90;99.90
27619;DHT22;15039;50.830;4.730;2022-07-04T01:13:22;14.80;99.90
27619;DHT22;15039;50.830;4.730;2022-07-04T01:15:48;14.80;99.90
27619;DHT22;15039;50.830;4.730;2022-07-04T01:18:13;14.80;99.90
27619;DHT22;15039;50.830;4.730;2022-07-04T01:20:39;14.80;99.90
27619;DHT22;15039;50.830;4.730;2022-07-04T01:23:05;14.80;99.90
27619;DHT22;15039;50.830;4.730;2022-07-04T01:25:31;14.80;99.90
27619;DHT22;15039;50.830;4.730;2022-07-04T01:27:59;14.80;99.90
27619;DHT22;15039;50.830;4.730;2022-07-04T01:30:26;14.80;99.90
27619;DHT22;15039;50.830;4.730;2022-07-04T01:32:51;14.80;99.90
27619;DHT22;15039;50.830;4.730;2022-07-04T01:35:17;14.70;99.90
27619;DHT22;15039;50.830;4.730;2022-07-04T01:37:43;14.60;99.90
27619;DHT22;15039;50.830;4.730;2022-07-04T01:40:09;14.60;99.90
27619;DHT22;15039;50.830;4.730;2022-07-04T01:42:35;14.70;99.90
27619;DHT22;15039;50.830;4.730;2022-07-04T01:45:00;14.70;99.90
27619;DHT22;15039;50.830;4.730;2022-07-04T01:47:26;14.80;99.90
27619;DHT22;15039;50.830;4.730;2022-07-04T01:49:53;14.80;99.90
27619;DHT22;15039;50.830;4.730;2022-07-04T01:52:18;14.70;99.90
27619;DHT22;15039;50.830;4.730;2022-07-04T01:54:44;14.70;99.90
27619;DHT22;15039;50.830;4.730;2022-07-04T01:57:10;14.70;99.90
27619;DHT22;15039;50.830;4.730;2022-07-04T01:59:35;14.70;99.90
27619;DHT22;15039;50.830;4.730;2022-07-04T02:02:19;14.70;99.90
27619;DHT22;15039;50.830;4.730;2022-07-04T02:04:45;14.60;99.90
27619;DHT22;15039;50.830;4.730;2022-07-04T02:07:11;14.70;99.90
27619;DHT22;15039;50.830;4.730;2022-07-04T02:09:36;14.60;99.90
27619;DHT22;15039;50.830;4.730;2022-07-04T02:12:02;14.50;99.90
27619;DHT22;15039;50.830;4.730;2022-07-04T02:14:46;14.50;99.90
27619;DHT22;15039;50.830;4.730;2022-07-04T02:17:11;14.50;99.90
27619;DHT22;15039;50.830;4.730;2022-07-04T02:19:37;14.50;99.90
27619;DHT22;15039;50.830;4.730;2022-07-04T02:22:03;14.40;99.90
27619;DHT22;15039;50.830;4.730;2022-07-04T02:24:29;14.40;99.90
27619;DHT22;15039;50.830;4.730;2022-07-04T02:26:58;14.30;99.90
27619;DHT22;15039;50.830;4.730;2022-07-04T02:29:23;14.30;99.90
27619;DHT22;15039;50.830;4.730;2022-07-04T02:31:49;14.20;99.90
27619;DHT22;15039;50.830;4.730;2022-07-04T02:34:15;14.20;99.90
27619;DHT22;15039;50.830;4.730;2022-07-04T02:36:40;14.10;99.90
27619;DHT22;15039;50.830;4.730;2022-07-04T02:39:06;14.10;99.90
27619;DHT22;15039;50.830;4.730;2022-07-04T02:41:33;14.10;99.90
27619;DHT22;15039;50.830;4.730;2022-07-04T02:43:58;14.00;99.90
27619;DHT22;15039;50.830;4.730;2022-07-04T02:46:24;14.10;99.90
27619;DHT22;15039;50.830;4.730;2022-07-04T02:48:50;14.10;99.90
27619;DHT22;15039;50.830;4.730;2022-07-04T02:51:16;14.10;99.90
27619;DHT22;15039;50.830;4.730;2022-07-04T02:53:42;14.10;99.90
27619;DHT22;15039;50.830;4.730;2022-07-04T02:56:08;14.10;99.90
27619;DHT22;15039;50.830;4.730;2022-07-04T02:58:34;14.10;99.90
27619;DHT22;15039;50.830;4.730;2022-07-04T03:01:00;14.10;99.90
27619;DHT22;15039;50.830;4.730;2022-07-04T03:03:26;14.10;99.90
27619;DHT22;15039;50.830;4.730;2022-07-04T03:05:52;14.10;99.90
27619;DHT22;15039;50.830;4.730;2022-07-04T03:08:17;14.10;99.90
27619;DHT22;15039;50.830;4.730;2022-07-04T03:10:43;14.00;99.90
27619;DHT22;15039;50.830;4.730;2022-07-04T03:13:09;14.00;99.90
27619;DHT22;15039;50.830;4.730;2022-07-04T03:15:34;14.00;99.90
27619;DHT22;15039;50.830;4.730;2022-07-04T03:18:00;14.00;99.90
27619;DHT22;15039;50.830;4.730;2022-07-04T03:20:26;13.90;99.90
27619;DHT22;15039;50.830;4.730;2022-07-04T03:22:51;13.90;99.90
27619;DHT22;15039;50.830;4.730;2022-07-04T03:25:20;13.90;99.90
27619;DHT22;15039;50.830;4.730;2022-07-04T03:27:45;13.90;99.90
27619;DHT22;15039;50.830;4.730;2022-07-04T03:30:11;13.90;99.90
27619;DHT22;15039;50.830;4.730;2022-07-04T03:32:37;13.80;99.90
27619;DHT22;15039;50.830;4.730;2022-07-04T03:35:03;13.80;99.90
27619;DHT22;15039;50.830;4.730;2022-07-04T03:37:29;13.80;99.90
27619;DHT22;15039;50.830;4.730;2022-07-04T03:39:54;13.90;99.90
27619;DHT22;15039;50.830;4.730;2022-07-04T03:42:20;13.80;99.90
27619;DHT22;15039;50.830;4.730;2022-07-04T03:44:46;13.70;99.90
27619;DHT22;15039;50.830;4.730;2022-07-04T03:47:11;13.70;99.90
27619;DHT22;15039;50.830;4.730;2022-07-04T03:49:37;13.70;99.90
27619;DHT22;15039;50.830;4.730;2022-07-04T03:52:03;13.80;99.90
27619;DHT22;15039;50.830;4.730;2022-07-04T03:54:29;13.80;99.90
27619;DHT22;15039;50.830;4.730;2022-07-04T03:56:55;13.90;99.90
27619;DHT22;15039;50.830;4.730;2022-07-04T03:59:21;13.80;99.90
27619;DHT22;15039;50.830;4.730;2022-07-04T04:01:47;13.90;99.90
27619;DHT22;15039;50.830;4.730;2022-07-04T04:04:12;13.90;99.90
27619;DHT22;15039;50.830;4.730;2022-07-04T04:06:57;13.90;99.90
27619;DHT22;15039;50.830;4.730;2022-07-04T04:09:22;13.90;99.90
27619;DHT22;15039;50.830;4.730;2022-07-04T04:11:50;13.90;99.90
27619;DHT22;15039;50.830;4.730;2022-07-04T04:14:16;13.90;99.90
27619;DHT22;15039;50.830;4.730;2022-07-04T04:16:42;14.00;99.90
27619;DHT22;15039;50.830;4.730;2022-07-04T04:19:11;14.00;99.90
27619;DHT22;15039;50.830;4.730;2022-07-04T04:21:37;14.10;99.90
27619;DHT22;15039;50.830;4.730;2022-07-04T04:24:03;14.00;99.90
27619;DHT22;15039;50.830;4.730;2022-07-04T04:26:29;14.00;99.90
27619;DHT22;15039;50.830;4.730;2022-07-04T04:28:55;14.10;99.90
27619;DHT22;15039;50.830;4.730;2022-07-04T04:31:21;14.10;99.90
27619;DHT22;15039;50.830;4.730;2022-07-04T04:33:47;14.20;99.90
27619;DHT22;15039;50.830;4.730;2022-07-04T04:36:13;14.10;99.90
27619;DHT22;15039;50.830;4.730;2022-07-04T04:38:38;14.20;99.90
27619;DHT22;15039;50.830;4.730;2022-07-04T04:41:04;14.10;99.90
27619;DHT22;15039;50.830;4.730;2022-07-04T04:43:30;14.20;99.90
27619;DHT22;15039;50.830;4.730;2022-07-04T04:45:55;14.20;99.90
27619;DHT22;15039;50.830;4.730;2022-07-04T04:48:21;14.20;99.90
27619;DHT22;15039;50.830;4.730;2022-07-04T04:50:47;14.10;99.90
27619;DHT22;15039;50.830;4.730;2022-07-04T04:53:12;14.20;99.90
27619;DHT22;15039;50.830;4.730;2022-07-04T04:55:39;14.20;99.90
27619;DHT22;15039;50.830;4.730;2022-07-04T04:58:04;14.20;99.90
27619;DHT22;15039;50.830;4.730;2022-07-04T05:00:30;14.20;99.90
27619;DHT22;15039;50.830;4.730;2022-07-04T05:02:56;14.20;99.90
27619;DHT22;15039;50.830;4.730;2022-07-04T05:05:22;14.20;99.90
27619;DHT22;15039;50.830;4.730;2022-07-04T05:07:48;14.30;99.90
27619;DHT22;15039;50.830;4.730;2022-07-04T05:10:14;14.30;99.90
27619;DHT22;15039;50.830;4.730;2022-07-04T05:12:41;14.40;99.90
27619;DHT22;15039;50.830;4.730;2022-07-04T05:15:07;14.40;99.90
27619;DHT22;15039;50.830;4.730;2022-07-04T05:17:33;14.50;99.90
27619;DHT22;15039;50.830;4.730;2022-07-04T05:19:59;14.60;99.90
27619;DHT22;15039;50.830;4.730;2022-07-04T05:22:25;14.60;99.90
27619;DHT22;15039;50.830;4.730;2022-07-04T05:24:51;14.60;99.90
27619;DHT22;15039;50.830;4.730;2022-07-04T05:27:16;14.70;99.90
27619;DHT22;15039;50.830;4.730;2022-07-04T05:29:42;14.80;99.90
27619;DHT22;15039;50.830;4.730;2022-07-04T05:32:08;14.80;99.90
27619;DHT22;15039;50.830;4.730;2022-07-04T05:34:34;14.90;99.90
27619;DHT22;15039;50.830;4.730;2022-07-04T05:36:59;15.00;99.90
27619;DHT22;15039;50.830;4.730;2022-07-04T05:39:25;15.10;99.90
27619;DHT22;15039;50.830;4.730;2022-07-04T05:41:51;15.10;99.90
27619;DHT22;15039;50.830;4.730;2022-07-04T05:44:16;15.20;99.90
27619;DHT22;15039;50.830;4.730;2022-07-04T05:46:42;15.30;99.90
27619;DHT22;15039;50.830;4.730;2022-07-04T05:49:07;15.30;99.90
27619;DHT22;15039;50.830;4.730;2022-07-04T05:51:34;15.40;99.90
27619;DHT22;15039;50.830;4.730;2022-07-04T05:53:59;15.50;99.90
27619;DHT22;15039;50.830;4.730;2022-07-04T05:56:25;15.60;99.90
27619;DHT22;15039;50.830;4.730;2022-07-04T05:58:51;15.80;99.90
27619;DHT22;15039;50.830;4.730;2022-07-04T06:01:18;15.80;99.90
27619;DHT22;15039;50.830;4.730;2022-07-04T06:03:44;16.00;99.90
27619;DHT22;15039;50.830;4.730;2022-07-04T06:06:09;16.30;99.90
27619;DHT22;15039;50.830;4.730;2022-07-04T06:08:35;16.80;99.90
27619;DHT22;15039;50.830;4.730;2022-07-04T06:11:02;17.40;99.90
27619;DHT22;15039;50.830;4.730;2022-07-04T06:13:28;18.10;99.90
27619;DHT22;15039;50.830;4.730;2022-07-04T06:15:54;18.70;99.90
27619;DHT22;15039;50.830;4.730;2022-07-04T06:18:20;19.30;99.90
27619;DHT22;15039;50.830;4.730;2022-07-04T06:20:46;19.80;99.90
27619;DHT22;15039;50.830;4.730;2022-07-04T06:23:11;20.40;99.90
27619;DHT22;15039;50.830;4.730;2022-07-04T06:25:37;20.90;99.90
27619;DHT22;15039;50.830;4.730;2022-07-04T06:28:03;21.30;99.90
27619;DHT22;15039;50.830;4.730;2022-07-04T06:30:29;21.30;99.90
27619;DHT22;15039;50.830;4.730;2022-07-04T06:32:56;21.50;99.90
27619;DHT22;15039;50.830;4.730;2022-07-04T06:35:24;21.60;99.90
27619;DHT22;15039;50.830;4.730;2022-07-04T06:38:09;21.80;99.90
27619;DHT22;15039;50.830;4.730;2022-07-04T06:40:35;22.00;99.90
27619;DHT22;15039;50.830;4.730;2022-07-04T06:43:01;22.20;99.90
27619;DHT22;15039;50.830;4.730;2022-07-04T06:45:27;22.20;99.90
27619;DHT22;15039;50.830;4.730;2022-07-04T06:47:53;22.00;99.90
27619;DHT22;15039;50.830;4.730;2022-07-04T06:50:18;21.80;99.90
27619;DHT22;15039;50.830;4.730;2022-07-04T06:52:44;21.50;99.90
27619;DHT22;15039;50.830;4.730;2022-07-04T06:55:10;21.30;99.90
27619;DHT22;15039;50.830;4.730;2022-07-04T06:57:36;21.00;99.90
27619;DHT22;15039;50.830;4.730;2022-07-04T07:00:03;20.70;99.90
27619;DHT22;15039;50.830;4.730;2022-07-04T07:02:30;20.40;99.90
27619;DHT22;15039;50.830;4.730;2022-07-04T07:04:56;20.10;99.90
27619;DHT22;15039;50.830;4.730;2022-07-04T07:07:23;19.90;99.90
27619;DHT22;15039;50.830;4.730;2022-07-04T07:09:50;19.70;99.90
27619;DHT22;15039;50.830;4.730;2022-07-04T07:12:16;19.40;99.90
27619;DHT22;15039;50.830;4.730;2022-07-04T07:14:42;19.30;99.90
27619;DHT22;15039;50.830;4.730;2022-07-04T07:17:07;19.00;99.90
27619;DHT22;15039;50.830;4.730;2022-07-04T07:19:33;19.00;99.90
27619;DHT22;15039;50.830;4.730;2022-07-04T07:21:59;19.10;99.90
27619;DHT22;15039;50.830;4.730;2022-07-04T07:24:25;19.10;99.90
27619;DHT22;15039;50.830;4.730;2022-07-04T07:26:52;19.10;99.90
27619;DHT22;15039;50.830;4.730;2022-07-04T07:29:18;19.10;99.90
27619;DHT22;15039;50.830;4.730;2022-07-04T07:31:43;19.20;99.90
27619;DHT22;15039;50.830;4.730;2022-07-04T07:34:09;19.30;99.90
27619;DHT22;15039;50.830;4.730;2022-07-04T07:36:35;19.30;99.90
27619;DHT22;15039;50.830;4.730;2022-07-04T07:39:00;19.30;99.90
27619;DHT22;15039;50.830;4.730;2022-07-04T07:41:26;19.20;99.90
27619;DHT22;15039;50.830;4.730;2022-07-04T07:43:52;19.20;99.90
27619;DHT22;15039;50.830;4.730;2022-07-04T07:46:17;19.20;99.90
27619;DHT22;15039;50.830;4.730;2022-07-04T07:48:43;19.30;99.90
27619;DHT22;15039;50.830;4.730;2022-07-04T07:51:10;19.40;99.90
27619;DHT22;15039;50.830;4.730;2022-07-04T07:53:36;19.50;99.90
27619;DHT22;15039;50.830;4.730;2022-07-04T07:56:02;19.50;99.90
27619;DHT22;15039;50.830;4.730;2022-07-04T07:58:28;19.60;99.90
27619;DHT22;15039;50.830;4.730;2022-07-04T08:00:53;19.70;99.90
27619;DHT22;15039;50.830;4.730;2022-07-04T08:03:19;19.80;99.90
27619;DHT22;15039;50.830;4.730;2022-07-04T08:06:03;19.90;99.90
27619;DHT22;15039;50.830;4.730;2022-07-04T08:08:29;19.90;99.90
27619;DHT22;15039;50.830;4.730;2022-07-04T08:10:54;20.00;99.90
27619;DHT22;15039;50.830;4.730;2022-07-04T08:13:20;20.10;99.90
27619;DHT22;15039;50.830;4.730;2022-07-04T08:15:46;20.20;99.90
27619;DHT22;15039;50.830;4.730;2022-07-04T08:18:12;20.30;99.90
27619;DHT22;15039;50.830;4.730;2022-07-04T08:20:37;20.40;99.90
27619;DHT22;15039;50.830;4.730;2022-07-04T08:23:03;20.40;99.90
27619;DHT22;15039;50.830;4.730;2022-07-04T08:25:29;20.50;99.90
27619;DHT22;15039;50.830;4.730;2022-07-04T08:27:55;20.60;99.90
27619;DHT22;15039;50.830;4.730;2022-07-04T08:30:20;20.70;99.90
27619;DHT22;15039;50.830;4.730;2022-07-04T08:32:46;20.80;99.90
27619;DHT22;15039;50.830;4.730;2022-07-04T08:35:12;20.80;99.90
27619;DHT22;15039;50.830;4.730;2022-07-04T08:37:38;20.80;99.90
27619;DHT22;15039;50.830;4.730;2022-07-04T08:40:06;20.80;99.90
27619;DHT22;15039;50.830;4.730;2022-07-04T08:42:39;20.90;99.90
27619;DHT22;15039;50.830;4.730;2022-07-04T08:45:06;20.90;99.90
27619;DHT22;15039;50.830;4.730;2022-07-04T08:47:34;20.90;99.90
27619;DHT22;15039;50.830;4.730;2022-07-04T08:50:06;21.00;99.90
27619;DHT22;15039;50.830;4.730;2022-07-04T08:52:40;21.20;99.90
27619;DHT22;15039;50.830;4.730;2022-07-04T08:55:09;21.10;99.90
27619;DHT22;15039;50.830;4.730;2022-07-04T08:57:53;21.10;99.90
27619;DHT22;15039;50.830;4.730;2022-07-04T09:00:39;21.10;99.90
27619;DHT22;15039;50.830;4.730;2022-07-04T09:03:05;21.20;99.90
27619;DHT22;15039;50.830;4.730;2022-07-04T09:05:31;21.30;99.90
27619;DHT22;15039;50.830;4.730;2022-07-04T09:07:58;21.40;99.90
27619;DHT22;15039;50.830;4.730;2022-07-04T09:10:23;21.40;99.90
27619;DHT22;15039;50.830;4.730;2022-07-04T09:12:49;21.60;99.90
27619;DHT22;15039;50.830;4.730;2022-07-04T09:15:16;21.70;99.90
27619;DHT22;15039;50.830;4.730;2022-07-04T09:17:42;21.80;99.90
27619;DHT22;15039;50.830;4.730;2022-07-04T09:20:19;21.90;99.90
27619;DHT22;15039;50.830;4.730;2022-07-04T09:22:47;22.00;99.90
27619;DHT22;15039;50.830;4.730;2022-07-04T09:25:13;22.00;99.90
27619;DHT22;15039;50.830;4.730;2022-07-04T09:27:53;22.00;99.90
27619;DHT22;15039;50.830;4.730;2022-07-04T09:30:24;22.00;99.90
27619;DHT22;15039;50.830;4.730;2022-07-04T09:32:55;21.90;99.90
27619;DHT22;15039;50.830;4.730;2022-07-04T09:35:30;22.00;99.90
27619;DHT22;15039;50.830;4.730;2022-07-04T09:38:00;22.10;99.50
27619;DHT22;15039;50.830;4.730;2022-07-04T09:40:34;22.20;99.90
27619;DHT22;15039;50.830;4.730;2022-07-04T09:43:20;22.30;99.90
27619;DHT22;15039;50.830;4.730;2022-07-04T09:45:57;22.40;99.00
27619;DHT22;15039;50.830;4.730;2022-07-04T09:48:23;22.50;99.50
27619;DHT22;15039;50.830;4.730;2022-07-04T09:50:50;22.50;99.30
27619;DHT22;15039;50.830;4.730;2022-07-04T09:53:16;22.50;99.90
27619;DHT22;15039;50.830;4.730;2022-07-04T09:55:42;22.60;99.70
27619;DHT22;15039;50.830;4.730;2022-07-04T09:58:09;22.80;99.80
27619;DHT22;15039;50.830;4.730;2022-07-04T10:00:46;23.00;99.40
27619;DHT22;15039;50.830;4.730;2022-07-04T10:06:10;22.90;98.10
27619;DHT22;15039;50.830;4.730;2022-07-04T10:08:41;23.10;97.40
27619;DHT22;15039;50.830;4.730;2022-07-04T10:11:07;23.20;97.00
27619;DHT22;15039;50.830;4.730;2022-07-04T10:13:33;23.00;96.80
27619;DHT22;15039;50.830;4.730;2022-07-04T10:15:59;23.00;96.60
27619;DHT22;15039;50.830;4.730;2022-07-04T10:18:26;23.10;97.00
27619;DHT22;15039;50.830;4.730;2022-07-04T10:20:54;23.10;97.10
27619;DHT22;15039;50.830;4.730;2022-07-04T10:23:21;23.00;97.50
27619;DHT22;15039;50.830;4.730;2022-07-04T10:25:48;23.20;97.70
27619;DHT22;15039;50.830;4.730;2022-07-04T10:28:15;23.30;97.40
27619;DHT22;15039;50.830;4.730;2022-07-04T10:30:41;23.60;96.70
27619;DHT22;15039;50.830;4.730;2022-07-04T10:33:11;23.70;96.80
27619;DHT22;15039;50.830;4.730;2022-07-04T10:35:58;23.60;96.10
27619;DHT22;15039;50.830;4.730;2022-07-04T10:38:30;23.80;96.30
27619;DHT22;15039;50.830;4.730;2022-07-04T10:40:58;23.80;96.30
27619;DHT22;15039;50.830;4.730;2022-07-04T10:51:14;23.60;96.40
27619;DHT22;15039;50.830;4.730;2022-07-04T10:54:00;23.80;96.80
27619;DHT22;15039;50.830;4.730;2022-07-04T10:58:53;23.80;96.20
27619;DHT22;15039;50.830;4.730;2022-07-04T11:01:19;23.50;95.70
27619;DHT22;15039;50.830;4.730;2022-07-04T11:03:49;23.30;95.20
27619;DHT22;15039;50.830;4.730;2022-07-04T11:09:19;23.40;95.80
27619;DHT22;15039;50.830;4.730;2022-07-04T11:12:03;23.80;95.10
27619;DHT22;15039;50.830;4.730;2022-07-04T11:14:45;24.10;95.10
27619;DHT22;15039;50.830;4.730;2022-07-04T11:17:14;24.40;94.40
27619;DHT22;15039;50.830;4.730;2022-07-04T11:19:41;24.70;94.20
27619;DHT22;15039;50.830;4.730;2022-07-04T11:22:09;25.00;94.40
27619;DHT22;15039;50.830;4.730;2022-07-04T11:24:37;25.20;94.10
27619;DHT22;15039;50.830;4.730;2022-07-04T11:27:03;25.00;94.00
27619;DHT22;15039;50.830;4.730;2022-07-04T11:29:29;24.90;94.40
27619;DHT22;15039;50.830;4.730;2022-07-04T11:31:56;24.80;93.00
27619;DHT22;15039;50.830;4.730;2022-07-04T11:34:22;24.60;93.90
27619;DHT22;15039;50.830;4.730;2022-07-04T11:36:50;24.80;94.80
27619;DHT22;15039;50.830;4.730;2022-07-04T11:39:18;24.70;93.90
27619;DHT22;15039;50.830;4.730;2022-07-04T11:41:50;24.60;94.30
27619;DHT22;15039;50.830;4.730;2022-07-04T11:44:39;24.50;93.80
27619;DHT22;15039;50.830;4.730;2022-07-04T11:52:21;24.30;93.80
27619;DHT22;15039;50.830;4.730;2022-07-04T11:54:49;24.30;93.70
27619;DHT22;15039;50.830;4.730;2022-07-04T11:57:35;24.50;94.20
27619;DHT22;15039;50.830;4.730;2022-07-04T12:00:06;24.70;93.90
27619;DHT22;15039;50.830;4.730;2022-07-04T12:02:33;24.90;93.30
27619;DHT22;15039;50.830;4.730;2022-07-04T12:05:01;25.20;93.00
27619;DHT22;15039;50.830;4.730;2022-07-04T12:07:28;25.40;92.90
27619;DHT22;15039;50.830;4.730;2022-07-04T12:09:55;25.70;92.70
27619;DHT22;15039;50.830;4.730;2022-07-04T12:12:21;25.80;93.50
27619;DHT22;15039;50.830;4.730;2022-07-04T12:15:05;26.00;92.50
27619;DHT22;15039;50.830;4.730;2022-07-04T12:17:36;26.20;92.10
27619;DHT22;15039;50.830;4.730;2022-07-04T12:20:18;26.20;91.60
27619;DHT22;15039;50.830;4.730;2022-07-04T12:22:52;26.00;91.30
27619;DHT22;15039;50.830;4.730;2022-07-04T12:25:30;25.70;90.70
27619;DHT22;15039;50.830;4.730;2022-07-04T12:28:12;25.80;91.50
27619;DHT22;15039;50.830;4.730;2022-07-04T12:30:57;25.90;90.40
27619;DHT22;15039;50.830;4.730;2022-07-04T12:33:26;25.90;91.00
27619;DHT22;15039;50.830;4.730;2022-07-04T12:35:55;26.00;92.10
27619;DHT22;15039;50.830;4.730;2022-07-04T12:41:05;25.50;93.40
27619;DHT22;15039;50.830;4.730;2022-07-04T12:48:33;25.50;91.50
27619;DHT22;15039;50.830;4.730;2022-07-04T12:51:24;25.60;92.10
27619;DHT22;15039;50.830;4.730;2022-07-04T12:53:52;25.70;91.90
27619;DHT22;15039;50.830;4.730;2022-07-04T12:59:07;26.30;90.80
27619;DHT22;15039;50.830;4.730;2022-07-04T13:01:34;26.60;90.70
27619;DHT22;15039;50.830;4.730;2022-07-04T13:04:00;26.60;90.60
27619;DHT22;15039;50.830;4.730;2022-07-04T13:06:26;26.60;90.80
27619;DHT22;15039;50.830;4.730;2022-07-04T13:08:52;26.90;90.40
27619;DHT22;15039;50.830;4.730;2022-07-04T13:11:19;27.00;89.80
27619;DHT22;15039;50.830;4.730;2022-07-04T13:14:03;27.10;90.40
27619;DHT22;15039;50.830;4.730;2022-07-04T13:16:29;26.90;89.10
27619;DHT22;15039;50.830;4.730;2022-07-04T13:18:54;27.20;89.70
27619;DHT22;15039;50.830;4.730;2022-07-04T13:21:20;27.10;87.00
27619;DHT22;15039;50.830;4.730;2022-07-04T13:23:46;26.80;88.70
27619;DHT22;15039;50.830;4.730;2022-07-04T13:26:11;26.70;89.40
27619;DHT22;15039;50.830;4.730;2022-07-04T13:28:37;26.10;90.40
27619;DHT22;15039;50.830;4.730;2022-07-04T13:31:04;25.80;90.90
27619;DHT22;15039;50.830;4.730;2022-07-04T13:33:30;25.50;91.40
27619;DHT22;15039;50.830;4.730;2022-07-04T13:35:56;25.60;91.80
27619;DHT22;15039;50.830;4.730;2022-07-04T13:38:22;25.60;90.30
27619;DHT22;15039;50.830;4.730;2022-07-04T13:40:48;25.70;90.20
27619;DHT22;15039;50.830;4.730;2022-07-04T13:43:14;25.70;90.50
27619;DHT22;15039;50.830;4.730;2022-07-04T13:45:40;25.40;91.20
27619;DHT22;15039;50.830;4.730;2022-07-04T13:48:09;25.30;91.90
27619;DHT22;15039;50.830;4.730;2022-07-04T13:50:34;25.30;91.90
27619;DHT22;15039;50.830;4.730;2022-07-04T13:53:08;25.40;92.70
27619;DHT22;15039;50.830;4.730;2022-07-04T13:55:35;25.60;92.20
27619;DHT22;15039;50.830;4.730;2022-07-04T13:58:05;25.60;91.70
27619;DHT22;15039;50.830;4.730;2022-07-04T14:00:31;25.60;92.60
27619;DHT22;15039;50.830;4.730;2022-07-04T14:02:57;25.70;90.10
27619;DHT22;15039;50.830;4.730;2022-07-04T14:05:23;25.80;90.40
27619;DHT22;15039;50.830;4.730;2022-07-04T14:07:50;26.00;91.10
27619;DHT22;15039;50.830;4.730;2022-07-04T14:10:16;26.10;88.40
27619;DHT22;15039;50.830;4.730;2022-07-04T14:12:41;26.10;85.50
27619;DHT22;15039;50.830;4.730;2022-07-04T14:15:08;26.30;89.50
27619;DHT22;15039;50.830;4.730;2022-07-04T14:17:34;26.20;89.00
27619;DHT22;15039;50.830;4.730;2022-07-04T14:20:00;26.30;89.10
27619;DHT22;15039;50.830;4.730;2022-07-04T14:22:26;26.40;90.10
27619;DHT22;15039;50.830;4.730;2022-07-04T14:24:52;26.50;90.60
27619;DHT22;15039;50.830;4.730;2022-07-04T14:27:17;26.70;90.00
27619;DHT22;15039;50.830;4.730;2022-07-04T14:29:44;26.50;87.80
27619;DHT22;15039;50.830;4.730;2022-07-04T14:32:10;26.20;86.00
27619;DHT22;15039;50.830;4.730;2022-07-04T14:34:35;26.10;87.80
27619;DHT22;15039;50.830;4.730;2022-07-04T14:37:01;26.10;87.80
27619;DHT22;15039;50.830;4.730;2022-07-04T14:39:27;26.20;87.40
27619;DHT22;15039;50.830;4.730;2022-07-04T14:41:53;26.30;87.80
27619;DHT22;15039;50.830;4.730;2022-07-04T14:44:19;26.30;86.90
27619;DHT22;15039;50.830;4.730;2022-07-04T14:46:45;26.20;88.60
27619;DHT22;15039;50.830;4.730;2022-07-04T14:49:10;26.30;88.40
27619;DHT22;15039;50.830;4.730;2022-07-04T14:51:36;26.50;88.10
27619;DHT22;15039;50.830;4.730;2022-07-04T14:54:08;26.50;87.00
27619;DHT22;15039;50.830;4.730;2022-07-04T14:56:35;26.40;87.00
27619;DHT22;15039;50.830;4.730;2022-07-04T14:59:02;26.50;87.90
27619;DHT22;15039;50.830;4.730;2022-07-04T15:01:28;26.70;87.50
27619;DHT22;15039;50.830;4.730;2022-07-04T15:03:54;26.80;88.10
27619;DHT22;15039;50.830;4.730;2022-07-04T15:06:20;26.90;86.70
27619;DHT22;15039;50.830;4.730;2022-07-04T15:08:46;26.80;86.90
27619;DHT22;15039;50.830;4.730;2022-07-04T15:11:11;26.70;86.90
27619;DHT22;15039;50.830;4.730;2022-07-04T15:13:37;26.70;86.80
27619;DHT22;15039;50.830;4.730;2022-07-04T15:16:03;26.70;87.00
27619;DHT22;15039;50.830;4.730;2022-07-04T15:18:29;26.80;87.20
27619;DHT22;15039;50.830;4.730;2022-07-04T15:20:55;26.80;87.40
27619;DHT22;15039;50.830;4.730;2022-07-04T15:23:39;26.90;86.40
27619;DHT22;15039;50.830;4.730;2022-07-04T15:26:23;27.00;87.80
27619;DHT22;15039;50.830;4.730;2022-07-04T15:28:49;27.00;87.10
27619;DHT22;15039;50.830;4.730;2022-07-04T15:31:15;26.70;87.70
27619;DHT22;15039;50.830;4.730;2022-07-04T15:33:40;26.60;87.80
27619;DHT22;15039;50.830;4.730;2022-07-04T15:36:07;26.60;88.60
27619;DHT22;15039;50.830;4.730;2022-07-04T15:38:33;26.70;86.90
27619;DHT22;15039;50.830;4.730;2022-07-04T15:40:59;26.80;88.20
27619;DHT22;15039;50.830;4.730;2022-07-04T15:43:29;27.00;88.20
27619;DHT22;15039;50.830;4.730;2022-07-04T15:45:56;27.00;88.50
27619;DHT22;15039;50.830;4.730;2022-07-04T15:48:22;26.70;87.90
27619;DHT22;15039;50.830;4.730;2022-07-04T15:50:47;26.50;87.20
27619;DHT22;15039;50.830;4.730;2022-07-04T15:53:14;26.60;88.70
27619;DHT22;15039;50.830;4.730;2022-07-04T15:55:39;26.70;88.90
27619;DHT22;15039;50.830;4.730;2022-07-04T15:58:06;26.70;87.50
27619;DHT22;15039;50.830;4.730;2022-07-04T16:00:31;27.00;90.00
27619;DHT22;15039;50.830;4.730;2022-07-04T16:02:57;26.90;88.00